sensor_id;sensor_type;location;lat;lon;timestamp;temperature;humidity
25963;DHT22;13760;52.588;13.406;2022-12-10T00:00:52;-1.70;99.90
25963;DHT22;13760;52.588;13.406;2022-12-10T00:03:17;-1.70;99.90
25963;DHT22;13760;52.588;13.406;2022-12-10T00:05:43;-1.70;99.90
25963;DHT22;13760;52.588;13.406;2022-12-10T00:08:08;-1.70;99.90
25963;DHT22;13760;52.588;13.406;2022-12-10T00:10:34;-1.70;99.90
25963;DHT22;13760;52.588;13.406;2022-12-10T00:13:03;-1.70;99.90
25963;DHT22;13760;52.588;13.406;2022-12-10T00:15:29;-1.60;99.90
25963;DHT22;13760;52.588;13.406;2022-12-10T00:17:54;-1.60;99.90
25963;DHT22;13760;52.588;13.406;2022-12-10T00:20:20;-1.70;99.90
25963;DHT22;13760;52.588;13.406;2022-12-10T00:22:45;-1.70;99.90
25963;DHT22;13760;52.588;13.406;2022-12-10T00:25:11;-1.70;99.90
25963;DHT22;13760;52.588;13.406;2022-12-10T00:27:37;-1.70;99.90
25963;DHT22;13760;52.588;13.406;2022-12-10T00:30:03;-1.70;99.90
25963;DHT22;13760;52.588;13.406;2022-12-10T00:32:28;-1.70;99.90
25963;DHT22;13760;52.588;13.406;2022-12-10T00:34:54;-1.70;99.90
25963;DHT22;13760;52.588;13.406;2022-12-10T00:37:19;-1.70;99.90
25963;DHT22;13760;52.588;13.406;2022-12-10T00:39:45;-1.70;99.90
25963;DHT22;13760;52.588;13.406;2022-12-10T00:42:10;-1.70;99.90
25963;DHT22;13760;52.588;13.406;2022-12-10T00:44:36;-1.70;99.90
25963;DHT22;13760;52.588;13.406;2022-12-10T00:47:01;-1.70;99.90
25963;DHT22;13760;52.588;13.406;2022-12-10T00:49:27;-1.70;99.90
25963;DHT22;13760;52.588;13.406;2022-12-10T00:51:52;-1.70;99.90
25963;DHT22;13760;52.588;13.406;2022-12-10T00:54:18;-1.60;99.90
25963;DHT22;13760;52.588;13.406;2022-12-10T00:56:43;-1.60;99.90
25963;DHT22;13760;52.588;13.406;2022-12-10T00:59:09;-1.70;99.90
25963;DHT22;13760;52.588;13.406;2022-12-10T01:01:37;-1.70;99.90
25963;DHT22;13760;52.588;13.406;2022-12-10T01:04:12;-1.70;99.90
25963;DHT22;13760;52.588;13.406;2022-12-10T01:06:47;-1.70;99.90
25963;DHT22;13760;52.588;13.406;2022-12-10T01:09:16;-1.70;99.90
25963;DHT22;13760;52.588;13.406;2022-12-10T01:11:44;-1.70;99.90
25963;DHT22;13760;52.588;13.406;2022-12-10T01:14:12;-1.70;99.90
25963;DHT22;13760;52.588;13.406;2022-12-10T01:16:38;-1.70;99.90
25963;DHT22;13760;52.588;13.406;2022-12-10T01:19:04;-1.70;99.90
25963;DHT22;13760;52.588;13.406;2022-12-10T01:21:30;-1.70;99.90
25963;DHT22;13760;52.588;13.406;2022-12-10T01:23:57;-1.80;99.90
25963;DHT22;13760;52.588;13.406;2022-12-10T01:26:25;-1.70;99.90
25963;DHT22;13760;52.588;13.406;2022-12-10T01:28:52;-1.80;99.90
25963;DHT22;13760;52.588;13.406;2022-12-10T01:31:26;-1.80;99.90
25963;DHT22;13760;52.588;13.406;2022-12-10T01:33:52;-1.80;99.90
25963;DHT22;13760;52.588;13.406;2022-12-10T01:36:24;-1.80;99.90
25963;DHT22;13760;52.588;13.406;2022-12-10T01:38:50;-1.80;99.90
25963;DHT22;13760;52.588;13.406;2022-12-10T01:41:23;-1.80;99.90
25963;DHT22;13760;52.588;13.406;2022-12-10T01:43:56;-1.80;99.90
25963;DHT22;13760;52.588;13.406;2022-12-10T01:46:24;-1.80;99.90
25963;DHT22;13760;52.588;13.406;2022-12-10T01:48:50;-1.80;99.90
25963;DHT22;13760;52.588;13.406;2022-12-10T01:51:16;-1.90;99.90
25963;DHT22;13760;52.588;13.406;2022-12-10T01:53:43;-1.90;99.90
25963;DHT22;13760;52.588;13.406;2022-12-10T01:56:10;-1.90;99.90
25963;DHT22;13760;52.588;13.406;2022-12-10T01:58:37;-1.90;99.90
25963;DHT22;13760;52.588;13.406;2022-12-10T02:01:18;-1.90;99.90
25963;DHT22;13760;52.588;13.406;2022-12-10T02:03:56;-1.90;99.90
25963;DHT22;13760;52.588;13.406;2022-12-10T02:06:45;-1.90;99.90
25963;DHT22;13760;52.588;13.406;2022-12-10T02:17:14;-2.00;99.90
25963;DHT22;13760;52.588;13.406;2022-12-10T02:22:26;-2.00;99.90
25963;DHT22;13760;52.588;13.406;2022-12-10T02:24:54;-2.10;99.90
25963;DHT22;13760;52.588;13.406;2022-12-10T02:27:38;-2.10;99.90
25963;DHT22;13760;52.588;13.406;2022-12-10T02:30:06;-2.10;99.90
25963;DHT22;13760;52.588;13.406;2022-12-10T02:32:36;-2.10;99.90
25963;DHT22;13760;52.588;13.406;2022-12-10T02:35:06;-2.10;99.90
25963;DHT22;13760;52.588;13.406;2022-12-10T02:37:38;-2.10;99.90
25963;DHT22;13760;52.588;13.406;2022-12-10T02:40:09;-2.10;99.90
25963;DHT22;13760;52.588;13.406;2022-12-10T02:42:38;-2.10;99.90
25963;DHT22;13760;52.588;13.406;2022-12-10T02:45:06;-2.10;99.90
25963;DHT22;13760;52.588;13.406;2022-12-10T02:47:33;-2.20;99.90
25963;DHT22;13760;52.588;13.406;2022-12-10T02:50:00;-2.10;99.90
25963;DHT22;13760;52.588;13.406;2022-12-10T02:52:26;-2.10;99.90
25963;DHT22;13760;52.588;13.406;2022-12-10T02:54:52;-2.20;99.90
25963;DHT22;13760;52.588;13.406;2022-12-10T02:57:37;-2.20;99.90
25963;DHT22;13760;52.588;13.406;2022-12-10T03:00:12;-2.20;99.90
25963;DHT22;13760;52.588;13.406;2022-12-10T03:08:34;-2.20;99.90
25963;DHT22;13760;52.588;13.406;2022-12-10T03:11:12;-2.20;99.90
25963;DHT22;13760;52.588;13.406;2022-12-10T03:14:05;-2.20;99.90
25963;DHT22;13760;52.588;13.406;2022-12-10T03:16:37;-2.20;99.90
25963;DHT22;13760;52.588;13.406;2022-12-10T03:19:07;-2.20;99.90
25963;DHT22;13760;52.588;13.406;2022-12-10T03:21:36;-2.20;99.90
25963;DHT22;13760;52.588;13.406;2022-12-10T03:24:03;-2.10;99.90
25963;DHT22;13760;52.588;13.406;2022-12-10T03:26:29;-2.10;99.90
25963;DHT22;13760;52.588;13.406;2022-12-10T03:29:01;-2.10;99.90
25963;DHT22;13760;52.588;13.406;2022-12-10T03:31:29;-2.10;99.90
25963;DHT22;13760;52.588;13.406;2022-12-10T03:33:56;-2.10;99.90
25963;DHT22;13760;52.588;13.406;2022-12-10T03:36:22;-2.10;99.90
25963;DHT22;13760;52.588;13.406;2022-12-10T03:38:48;-2.10;99.90
25963;DHT22;13760;52.588;13.406;2022-12-10T03:41:14;-2.10;99.90
25963;DHT22;13760;52.588;13.406;2022-12-10T03:43:54;-2.10;99.90
25963;DHT22;13760;52.588;13.406;2022-12-10T03:46:21;-2.00;99.90
25963;DHT22;13760;52.588;13.406;2022-12-10T03:48:47;-2.10;99.90
25963;DHT22;13760;52.588;13.406;2022-12-10T03:51:12;-2.00;99.90
25963;DHT22;13760;52.588;13.406;2022-12-10T03:53:38;-2.00;99.90
25963;DHT22;13760;52.588;13.406;2022-12-10T03:56:03;-2.00;99.90
25963;DHT22;13760;52.588;13.406;2022-12-10T03:58:29;-2.00;99.90
25963;DHT22;13760;52.588;13.406;2022-12-10T04:00:54;-2.00;99.90
25963;DHT22;13760;52.588;13.406;2022-12-10T04:03:20;-2.00;99.90
25963;DHT22;13760;52.588;13.406;2022-12-10T04:05:45;-2.00;99.90
25963;DHT22;13760;52.588;13.406;2022-12-10T04:08:11;-1.90;99.90
25963;DHT22;13760;52.588;13.406;2022-12-10T04:10:37;-1.90;99.90
25963;DHT22;13760;52.588;13.406;2022-12-10T04:13:03;-1.90;99.90
25963;DHT22;13760;52.588;13.406;2022-12-10T04:15:48;-1.80;99.90
25963;DHT22;13760;52.588;13.406;2022-12-10T04:18:32;-1.80;99.90
25963;DHT22;13760;52.588;13.406;2022-12-10T04:20:58;-1.80;99.90
25963;DHT22;13760;52.588;13.406;2022-12-10T04:23:42;-1.70;99.90
25963;DHT22;13760;52.588;13.406;2022-12-10T04:26:26;-1.70;99.90
25963;DHT22;13760;52.588;13.406;2022-12-10T04:29:10;-1.60;99.90
25963;DHT22;13760;52.588;13.406;2022-12-10T04:31:36;-1.60;99.90
25963;DHT22;13760;52.588;13.406;2022-12-10T04:34:01;-1.60;99.90
25963;DHT22;13760;52.588;13.406;2022-12-10T04:36:27;-1.60;99.90
25963;DHT22;13760;52.588;13.406;2022-12-10T04:38:52;-1.60;99.90
25963;DHT22;13760;52.588;13.406;2022-12-10T04:41:18;-1.60;99.90
25963;DHT22;13760;52.588;13.406;2022-12-10T04:43:44;-1.60;99.90
25963;DHT22;13760;52.588;13.406;2022-12-10T04:46:10;-1.50;99.90
25963;DHT22;13760;52.588;13.406;2022-12-10T04:48:35;-1.50;99.90
25963;DHT22;13760;52.588;13.406;2022-12-10T04:51:01;-1.50;99.90
25963;DHT22;13760;52.588;13.406;2022-12-10T04:53:26;-1.50;99.90
25963;DHT22;13760;52.588;13.406;2022-12-10T04:55:55;-1.50;99.90
25963;DHT22;13760;52.588;13.406;2022-12-10T04:58:20;-1.50;99.90
25963;DHT22;13760;52.588;13.406;2022-12-10T05:00:46;-1.50;99.90
25963;DHT22;13760;52.588;13.406;2022-12-10T05:03:11;-1.50;99.90
25963;DHT22;13760;52.588;13.406;2022-12-10T05:05:37;-1.50;99.90
25963;DHT22;13760;52.588;13.406;2022-12-10T05:08:03;-1.50;99.90
25963;DHT22;13760;52.588;13.406;2022-12-10T05:10:29;-1.50;99.90
25963;DHT22;13760;52.588;13.406;2022-12-10T05:12:55;-1.50;99.90
25963;DHT22;13760;52.588;13.406;2022-12-10T05:15:21;-1.50;99.90
25963;DHT22;13760;52.588;13.406;2022-12-10T05:17:46;-1.40;99.90
25963;DHT22;13760;52.588;13.406;2022-12-10T05:20:12;-1.50;99.90
25963;DHT22;13760;52.588;13.406;2022-12-10T05:22:37;-1.40;99.90
25963;DHT22;13760;52.588;13.406;2022-12-10T05:25:21;-1.40;99.90
25963;DHT22;13760;52.588;13.406;2022-12-10T05:27:47;-1.40;99.90
25963;DHT22;13760;52.588;13.406;2022-12-10T05:30:13;-1.40;99.90
25963;DHT22;13760;52.588;13.406;2022-12-10T05:32:38;-1.40;99.90
25963;DHT22;13760;52.588;13.406;2022-12-10T05:35:04;-1.40;99.90
25963;DHT22;13760;52.588;13.406;2022-12-10T05:37:30;-1.40;99.90
25963;DHT22;13760;52.588;13.406;2022-12-10T05:39:55;-1.40;99.90
25963;DHT22;13760;52.588;13.406;2022-12-10T05:42:21;-1.40;99.90
25963;DHT22;13760;52.588;13.406;2022-12-10T05:44:46;-1.50;99.90
25963;DHT22;13760;52.588;13.406;2022-12-10T05:47:12;-1.50;99.90
25963;DHT22;13760;52.588;13.406;2022-12-10T05:49:37;-1.50;99.90
25963;DHT22;13760;52.588;13.406;2022-12-10T05:52:03;-1.50;99.90
25963;DHT22;13760;52.588;13.406;2022-12-10T05:54:28;-1.50;99.90
25963;DHT22;13760;52.588;13.406;2022-12-10T05:56:54;-1.50;99.90
25963;DHT22;13760;52.588;13.406;2022-12-10T05:59:19;-1.50;99.90
25963;DHT22;13760;52.588;13.406;2022-12-10T06:01:45;-1.50;99.90
25963;DHT22;13760;52.588;13.406;2022-12-10T06:04:11;-1.50;99.90
25963;DHT22;13760;52.588;13.406;2022-12-10T06:06:38;-1.50;99.90
25963;DHT22;13760;52.588;13.406;2022-12-10T06:09:05;-1.40;99.90
25963;DHT22;13760;52.588;13.406;2022-12-10T06:11:31;-1.40;99.90
25963;DHT22;13760;52.588;13.406;2022-12-10T06:13:57;-1.50;99.90
25963;DHT22;13760;52.588;13.406;2022-12-10T06:16:25;-1.40;99.90
25963;DHT22;13760;52.588;13.406;2022-12-10T06:18:51;-1.40;99.90
25963;DHT22;13760;52.588;13.406;2022-12-10T06:21:20;-1.50;99.90
25963;DHT22;13760;52.588;13.406;2022-12-10T06:23:54;-1.50;99.90
25963;DHT22;13760;52.588;13.406;2022-12-10T06:26:22;-1.50;99.90
25963;DHT22;13760;52.588;13.406;2022-12-10T06:28:48;-1.50;99.90
25963;DHT22;13760;52.588;13.406;2022-12-10T06:31:17;-1.50;99.90
25963;DHT22;13760;52.588;13.406;2022-12-10T06:33:43;-1.50;99.90
25963;DHT22;13760;52.588;13.406;2022-12-10T06:36:10;-1.50;99.90
25963;DHT22;13760;52.588;13.406;2022-12-10T06:38:37;-1.50;99.90
25963;DHT22;13760;52.588;13.406;2022-12-10T06:41:11;-1.50;99.90
25963;DHT22;13760;52.588;13.406;2022-12-10T06:43:37;-1.50;99.90
25963;DHT22;13760;52.588;13.406;2022-12-10T06:46:06;-1.50;99.90
25963;DHT22;13760;52.588;13.406;2022-12-10T06:48:32;-1.50;99.90
25963;DHT22;13760;52.588;13.406;2022-12-10T06:50:58;-1.50;99.90
25963;DHT22;13760;52.588;13.406;2022-12-10T06:53:24;-1.60;99.90
25963;DHT22;13760;52.588;13.406;2022-12-10T06:55:49;-1.50;99.90
25963;DHT22;13760;52.588;13.406;2022-12-10T06:58:15;-1.50;99.90
25963;DHT22;13760;52.588;13.406;2022-12-10T07:00:40;-1.50;99.90
25963;DHT22;13760;52.588;13.406;2022-12-10T07:03:06;-1.50;99.90
25963;DHT22;13760;52.588;13.406;2022-12-10T07:05:31;-1.60;99.90
25963;DHT22;13760;52.588;13.406;2022-12-10T07:07:57;-1.60;99.90
25963;DHT22;13760;52.588;13.406;2022-12-10T07:10:22;-1.60;99.90
25963;DHT22;13760;52.588;13.406;2022-12-10T07:12:48;-1.60;99.90
25963;DHT22;13760;52.588;13.406;2022-12-10T07:15:13;-1.60;99.90
25963;DHT22;13760;52.588;13.406;2022-12-10T07:17:39;-1.60;99.90
25963;DHT22;13760;52.588;13.406;2022-12-10T07:20:05;-1.50;99.90
25963;DHT22;13760;52.588;13.406;2022-12-10T07:22:30;-1.50;99.90
25963;DHT22;13760;52.588;13.406;2022-12-10T07:24:56;-1.60;99.90
25963;DHT22;13760;52.588;13.406;2022-12-10T07:27:21;-1.60;99.90
25963;DHT22;13760;52.588;13.406;2022-12-10T07:29:47;-1.60;99.90
25963;DHT22;13760;52.588;13.406;2022-12-10T07:32:12;-1.60;99.90
25963;DHT22;13760;52.588;13.406;2022-12-10T07:34:38;-1.60;99.90
25963;DHT22;13760;52.588;13.406;2022-12-10T07:37:03;-1.60;99.90
25963;DHT22;13760;52.588;13.406;2022-12-10T07:39:29;-1.60;99.90
25963;DHT22;13760;52.588;13.406;2022-12-10T07:41:54;-1.50;99.90
25963;DHT22;13760;52.588;13.406;2022-12-10T07:44:24;-1.50;99.90
25963;DHT22;13760;52.588;13.406;2022-12-10T07:46:52;-1.50;99.90
25963;DHT22;13760;52.588;13.406;2022-12-10T07:49:19;-1.50;99.90
25963;DHT22;13760;52.588;13.406;2022-12-10T07:51:48;-1.50;99.90
25963;DHT22;13760;52.588;13.406;2022-12-10T07:54:15;-1.50;99.90
25963;DHT22;13760;52.588;13.406;2022-12-10T07:56:41;-1.50;99.90
25963;DHT22;13760;52.588;13.406;2022-12-10T07:59:07;-1.50;99.90
25963;DHT22;13760;52.588;13.406;2022-12-10T08:01:33;-1.50;99.90
25963;DHT22;13760;52.588;13.406;2022-12-10T08:03:59;-1.50;99.90
25963;DHT22;13760;52.588;13.406;2022-12-10T08:06:26;-1.40;99.90
25963;DHT22;13760;52.588;13.406;2022-12-10T08:08:52;-1.40;99.90
25963;DHT22;13760;52.588;13.406;2022-12-10T08:11:19;-1.40;99.90
25963;DHT22;13760;52.588;13.406;2022-12-10T08:13:50;-1.40;99.90
25963;DHT22;13760;52.588;13.406;2022-12-10T08:16:18;-1.40;99.90
25963;DHT22;13760;52.588;13.406;2022-12-10T08:18:44;-1.40;99.90
25963;DHT22;13760;52.588;13.406;2022-12-10T08:21:13;-1.40;99.90
25963;DHT22;13760;52.588;13.406;2022-12-10T08:23:41;-1.40;99.90
25963;DHT22;13760;52.588;13.406;2022-12-10T08:26:14;-1.30;99.90
25963;DHT22;13760;52.588;13.406;2022-12-10T08:28:40;-1.30;99.90
25963;DHT22;13760;52.588;13.406;2022-12-10T08:31:08;-1.30;99.90
25963;DHT22;13760;52.588;13.406;2022-12-10T08:33:34;-1.30;99.90
25963;DHT22;13760;52.588;13.406;2022-12-10T08:36:00;-1.30;99.90
25963;DHT22;13760;52.588;13.406;2022-12-10T08:38:26;-1.30;99.90
25963;DHT22;13760;52.588;13.406;2022-12-10T08:40:52;-1.30;99.90
25963;DHT22;13760;52.588;13.406;2022-12-10T08:43:17;-1.20;99.90
25963;DHT22;13760;52.588;13.406;2022-12-10T08:45:43;-1.20;99.90
25963;DHT22;13760;52.588;13.406;2022-12-10T08:48:09;-1.20;99.90
25963;DHT22;13760;52.588;13.406;2022-12-10T08:50:36;-1.20;99.90
25963;DHT22;13760;52.588;13.406;2022-12-10T08:53:01;-1.20;99.90
25963;DHT22;13760;52.588;13.406;2022-12-10T08:55:27;-1.20;99.90
25963;DHT22;13760;52.588;13.406;2022-12-10T08:57:52;-1.10;99.90
25963;DHT22;13760;52.588;13.406;2022-12-10T09:00:18;-1.20;99.90
25963;DHT22;13760;52.588;13.406;2022-12-10T09:02:44;-1.10;99.90
25963;DHT22;13760;52.588;13.406;2022-12-10T09:05:10;-1.10;99.90
25963;DHT22;13760;52.588;13.406;2022-12-10T09:07:35;-1.10;99.90
25963;DHT22;13760;52.588;13.406;2022-12-10T09:10:01;-1.10;99.90
25963;DHT22;13760;52.588;13.406;2022-12-10T09:12:26;-1.00;99.90
25963;DHT22;13760;52.588;13.406;2022-12-10T09:14:52;-1.00;99.90
25963;DHT22;13760;52.588;13.406;2022-12-10T09:17:17;-1.00;99.90
25963;DHT22;13760;52.588;13.406;2022-12-10T09:19:43;-1.00;99.90
25963;DHT22;13760;52.588;13.406;2022-12-10T09:22:08;-1.00;99.90
25963;DHT22;13760;52.588;13.406;2022-12-10T09:24:34;-0.90;99.90
25963;DHT22;13760;52.588;13.406;2022-12-10T09:27:00;-0.90;99.90
25963;DHT22;13760;52.588;13.406;2022-12-10T09:29:27;-0.90;99.90
25963;DHT22;13760;52.588;13.406;2022-12-10T09:31:52;-0.80;99.90
25963;DHT22;13760;52.588;13.406;2022-12-10T09:34:18;-0.90;99.90
25963;DHT22;13760;52.588;13.406;2022-12-10T09:36:44;-0.90;99.90
25963;DHT22;13760;52.588;13.406;2022-12-10T09:39:09;-0.80;99.90
25963;DHT22;13760;52.588;13.406;2022-12-10T09:42:10;-0.80;99.90
25963;DHT22;13760;52.588;13.406;2022-12-10T09:44:57;-0.80;99.90
25963;DHT22;13760;52.588;13.406;2022-12-10T09:47:40;-0.90;99.90
25963;DHT22;13760;52.588;13.406;2022-12-10T09:50:29;-0.80;99.90
25963;DHT22;13760;52.588;13.406;2022-12-10T09:52:57;-0.80;99.90
25963;DHT22;13760;52.588;13.406;2022-12-10T09:55:37;-0.80;99.90
25963;DHT22;13760;52.588;13.406;2022-12-10T09:58:05;-0.80;99.90
25963;DHT22;13760;52.588;13.406;2022-12-10T10:00:37;-0.80;99.90
25963;DHT22;13760;52.588;13.406;2022-12-10T10:03:04;-0.70;99.90
25963;DHT22;13760;52.588;13.406;2022-12-10T10:05:35;-0.70;99.90
25963;DHT22;13760;52.588;13.406;2022-12-10T10:08:06;-0.70;99.90
25963;DHT22;13760;52.588;13.406;2022-12-10T10:10:39;-0.70;99.90
25963;DHT22;13760;52.588;13.406;2022-12-10T10:15:35;-0.70;99.90
25963;DHT22;13760;52.588;13.406;2022-12-10T10:18:50;-0.60;99.90
25963;DHT22;13760;52.588;13.406;2022-12-10T10:20:50;-0.60;99.90
25963;DHT22;13760;52.588;13.406;2022-12-10T10:23:16;-0.50;99.90
25963;DHT22;13760;52.588;13.406;2022-12-10T10:25:43;-0.60;99.90
25963;DHT22;13760;52.588;13.406;2022-12-10T10:28:18;-0.60;99.90
25963;DHT22;13760;52.588;13.406;2022-12-10T10:30:44;-0.60;99.90
25963;DHT22;13760;52.588;13.406;2022-12-10T10:33:12;-0.60;99.90
25963;DHT22;13760;52.588;13.406;2022-12-10T10:35:44;-0.60;99.90
25963;DHT22;13760;52.588;13.406;2022-12-10T10:38:18;-0.60;99.90
25963;DHT22;13760;52.588;13.406;2022-12-10T10:40:49;-0.60;99.90
25963;DHT22;13760;52.588;13.406;2022-12-10T10:46:06;-0.60;99.90
25963;DHT22;13760;52.588;13.406;2022-12-10T10:48:35;-0.60;99.90
25963;DHT22;13760;52.588;13.406;2022-12-10T10:56:15;-0.60;99.90
25963;DHT22;13760;52.588;13.406;2022-12-10T10:59:05;-0.60;99.90
25963;DHT22;13760;52.588;13.406;2022-12-10T11:02:04;-0.60;99.90
25963;DHT22;13760;52.588;13.406;2022-12-10T11:04:36;-0.60;99.90
25963;DHT22;13760;52.588;13.406;2022-12-10T11:07:04;-0.60;99.90
25963;DHT22;13760;52.588;13.406;2022-12-10T11:09:32;-0.60;99.90
25963;DHT22;13760;52.588;13.406;2022-12-10T11:12:04;-0.60;99.90
25963;DHT22;13760;52.588;13.406;2022-12-10T11:14:40;-0.60;99.90
25963;DHT22;13760;52.588;13.406;2022-12-10T11:19:34;-0.60;99.90
25963;DHT22;13760;52.588;13.406;2022-12-10T11:22:16;-0.50;99.90
25963;DHT22;13760;52.588;13.406;2022-12-10T11:24:42;-0.60;99.90
25963;DHT22;13760;52.588;13.406;2022-12-10T11:27:25;-0.50;99.90
25963;DHT22;13760;52.588;13.406;2022-12-10T11:30:18;-0.60;99.90
25963;DHT22;13760;52.588;13.406;2022-12-10T11:38:24;-0.50;99.90
25963;DHT22;13760;52.588;13.406;2022-12-10T11:44:10;-0.50;99.90
25963;DHT22;13760;52.588;13.406;2022-12-10T11:49:30;-0.50;99.90
25963;DHT22;13760;52.588;13.406;2022-12-10T11:52:09;-0.50;99.90
25963;DHT22;13760;52.588;13.406;2022-12-10T12:00:42;-0.40;99.90
25963;DHT22;13760;52.588;13.406;2022-12-10T12:03:33;-0.50;99.90
25963;DHT22;13760;52.588;13.406;2022-12-10T12:06:35;-0.40;99.90
25963;DHT22;13760;52.588;13.406;2022-12-10T12:09:33;-0.50;99.90
25963;DHT22;13760;52.588;13.406;2022-12-10T12:12:18;-0.50;99.90
25963;DHT22;13760;52.588;13.406;2022-12-10T12:14:51;-0.50;99.90
25963;DHT22;13760;52.588;13.406;2022-12-10T12:17:41;-0.50;99.90
25963;DHT22;13760;52.588;13.406;2022-12-10T12:20:25;-0.50;99.90
25963;DHT22;13760;52.588;13.406;2022-12-10T12:23:28;-0.50;99.90
25963;DHT22;13760;52.588;13.406;2022-12-10T12:26:00;-0.50;99.90
25963;DHT22;13760;52.588;13.406;2022-12-10T12:28:32;-0.50;99.90
25963;DHT22;13760;52.588;13.406;2022-12-10T12:31:08;-0.50;99.90
25963;DHT22;13760;52.588;13.406;2022-12-10T12:36:21;-0.60;99.90
25963;DHT22;13760;52.588;13.406;2022-12-10T12:39:00;-0.60;99.90
25963;DHT22;13760;52.588;13.406;2022-12-10T12:41:48;-0.60;99.90
25963;DHT22;13760;52.588;13.406;2022-12-10T12:44:44;-0.60;99.90
25963;DHT22;13760;52.588;13.406;2022-12-10T12:47:29;-0.70;99.90
25963;DHT22;13760;52.588;13.406;2022-12-10T12:49:59;-0.60;99.90
25963;DHT22;13760;52.588;13.406;2022-12-10T12:55:02;-0.60;99.90
25963;DHT22;13760;52.588;13.406;2022-12-10T12:58:03;-0.60;99.90
25963;DHT22;13760;52.588;13.406;2022-12-10T13:00:35;-0.60;99.90
25963;DHT22;13760;52.588;13.406;2022-12-10T13:03:29;-0.60;99.90
25963;DHT22;13760;52.588;13.406;2022-12-10T13:05:54;-0.60;99.90
25963;DHT22;13760;52.588;13.406;2022-12-10T13:13:36;-0.70;99.90
25963;DHT22;13760;52.588;13.406;2022-12-10T13:27:15;-0.70;99.90
25963;DHT22;13760;52.588;13.406;2022-12-10T13:48:56;-0.70;99.90
25963;DHT22;13760;52.588;13.406;2022-12-10T13:54:20;-0.70;99.90
25963;DHT22;13760;52.588;13.406;2022-12-10T13:56:54;-0.80;99.90
25963;DHT22;13760;52.588;13.406;2022-12-10T13:59:42;-0.70;99.90
25963;DHT22;13760;52.588;13.406;2022-12-10T14:02:48;-0.80;99.90
25963;DHT22;13760;52.588;13.406;2022-12-10T14:07:50;-0.80;99.90
25963;DHT22;13760;52.588;13.406;2022-12-10T14:10:26;-0.80;99.90
25963;DHT22;13760;52.588;13.406;2022-12-10T14:12:53;-0.80;99.90
25963;DHT22;13760;52.588;13.406;2022-12-10T14:15:24;-0.80;99.90
25963;DHT22;13760;52.588;13.406;2022-12-10T14:17:59;-0.80;99.90
25963;DHT22;13760;52.588;13.406;2022-12-10T14:20:26;-0.80;99.90
25963;DHT22;13760;52.588;13.406;2022-12-10T14:22:54;-0.80;99.90
25963;DHT22;13760;52.588;13.406;2022-12-10T14:25:45;-0.80;99.90
25963;DHT22;13760;52.588;13.406;2022-12-10T14:28:13;-0.80;99.90
25963;DHT22;13760;52.588;13.406;2022-12-10T14:30:47;-0.90;99.90
25963;DHT22;13760;52.588;13.406;2022-12-10T14:33:23;-0.80;99.90
25963;DHT22;13760;52.588;13.406;2022-12-10T14:35:54;-0.80;99.90
25963;DHT22;13760;52.588;13.406;2022-12-10T14:38:30;-0.80;99.90
25963;DHT22;13760;52.588;13.406;2022-12-10T14:40:58;-0.80;99.90
25963;DHT22;13760;52.588;13.406;2022-12-10T14:43:29;-0.80;99.90
25963;DHT22;13760;52.588;13.406;2022-12-10T14:45:59;-0.80;99.90
25963;DHT22;13760;52.588;13.406;2022-12-10T14:48:26;-0.80;99.90
25963;DHT22;13760;52.588;13.406;2022-12-10T14:50:53;-0.90;99.90
25963;DHT22;13760;52.588;13.406;2022-12-10T14:53:26;-0.80;99.90
25963;DHT22;13760;52.588;13.406;2022-12-10T14:56:14;-0.90;99.90
25963;DHT22;13760;52.588;13.406;2022-12-10T14:58:47;-0.90;99.90
25963;DHT22;13760;52.588;13.406;2022-12-10T15:03:48;-0.80;99.90
25963;DHT22;13760;52.588;13.406;2022-12-10T15:06:16;-0.90;99.90
25963;DHT22;13760;52.588;13.406;2022-12-10T15:08:45;-0.90;99.90
25963;DHT22;13760;52.588;13.406;2022-12-10T15:11:16;-0.90;99.90
25963;DHT22;13760;52.588;13.406;2022-12-10T15:13:46;-0.90;99.90
25963;DHT22;13760;52.588;13.406;2022-12-10T15:16:28;-0.90;99.90
25963;DHT22;13760;52.588;13.406;2022-12-10T15:18:54;-0.80;99.90
25963;DHT22;13760;52.588;13.406;2022-12-10T15:21:23;-0.80;99.90
25963;DHT22;13760;52.588;13.406;2022-12-10T15:23:49;-0.90;99.90
25963;DHT22;13760;52.588;13.406;2022-12-10T15:26:20;-0.90;99.90
25963;DHT22;13760;52.588;13.406;2022-12-10T15:28:47;-0.80;99.90
25963;DHT22;13760;52.588;13.406;2022-12-10T15:33:56;-0.80;99.90
25963;DHT22;13760;52.588;13.406;2022-12-10T15:36:49;-0.80;99.90
25963;DHT22;13760;52.588;13.406;2022-12-10T15:39:30;-0.90;99.90
25963;DHT22;13760;52.588;13.406;2022-12-10T15:42:01;-0.80;99.90
25963;DHT22;13760;52.588;13.406;2022-12-10T15:44:37;-0.90;99.90
25963;DHT22;13760;52.588;13.406;2022-12-10T15:47:24;-0.90;99.90
25963;DHT22;13760;52.588;13.406;2022-12-10T15:49:52;-0.90;99.90
25963;DHT22;13760;52.588;13.406;2022-12-10T15:52:27;-0.90;99.90
25963;DHT22;13760;52.588;13.406;2022-12-10T15:54:54;-0.90;99.90
25963;DHT22;13760;52.588;13.406;2022-12-10T15:57:31;-0.90;99.90
25963;DHT22;13760;52.588;13.406;2022-12-10T15:59:59;-0.90;99.90
25963;DHT22;13760;52.588;13.406;2022-12-10T16:05:14;-0.90;99.90
25963;DHT22;13760;52.588;13.406;2022-12-10T16:07:40;-0.90;99.90
25963;DHT22;13760;52.588;13.406;2022-12-10T16:10:06;-0.90;99.90
25963;DHT22;13760;52.588;13.406;2022-12-10T16:12:34;-0.90;99.90
25963;DHT22;13760;52.588;13.406;2022-12-10T16:15:01;-0.80;99.90
25963;DHT22;13760;52.588;13.406;2022-12-10T16:17:27;-0.90;99.90
25963;DHT22;13760;52.588;13.406;2022-12-10T16:19:56;-0.80;99.90
25963;DHT22;13760;52.588;13.406;2022-12-10T16:22:22;-0.90;99.90
25963;DHT22;13760;52.588;13.406;2022-12-10T16:24:47;-0.90;99.90
25963;DHT22;13760;52.588;13.406;2022-12-10T16:27:14;-0.90;99.90
25963;DHT22;13760;52.588;13.406;2022-12-10T16:29:41;-0.90;99.90
25963;DHT22;13760;52.588;13.406;2022-12-10T16:32:10;-0.90;99.90
25963;DHT22;13760;52.588;13.406;2022-12-10T16:34:36;-0.90;99.90
25963;DHT22;13760;52.588;13.406;2022-12-10T16:37:02;-0.90;99.90
25963;DHT22;13760;52.588;13.406;2022-12-10T16:39:28;-0.90;99.90
25963;DHT22;13760;52.588;13.406;2022-12-10T16:41:54;-0.90;99.90
25963;DHT22;13760;52.588;13.406;2022-12-10T16:44:20;-0.90;99.90
25963;DHT22;13760;52.588;13.406;2022-12-10T16:46:46;-0.90;99.90
25963;DHT22;13760;52.588;13.406;2022-12-10T16:49:12;-0.90;99.90
25963;DHT22;13760;52.588;13.406;2022-12-10T16:51:38;-0.90;99.90
25963;DHT22;13760;52.588;13.406;2022-12-10T16:54:04;-0.90;99.90
25963;DHT22;13760;52.588;13.406;2022-12-10T16:56:30;-0.90;99.90
25963;DHT22;13760;52.588;13.406;2022-12-10T16:58:56;-0.90;99.90
25963;DHT22;13760;52.588;13.406;2022-12-10T17:01:28;-0.90;99.90
25963;DHT22;13760;52.588;13.406;2022-12-10T17:03:56;-0.90;99.90
25963;DHT22;13760;52.588;13.406;2022-12-10T17:06:22;-0.90;99.90
25963;DHT22;13760;52.588;13.406;2022-12-10T17:08:48;-0.90;99.90
25963;DHT22;13760;52.588;13.406;2022-12-10T17:14:01;-0.90;99.90
25963;DHT22;13760;52.588;13.406;2022-12-10T17:16:27;-0.80;99.90